createdAt,value
2022-12-20T00:00:36.089Z,41.00
2022-12-20T00:02:38.503Z,29.53
2022-12-20T00:04:40.649Z,28.03
2022-12-20T00:06:43.311Z,25.00
2022-12-20T00:08:45.573Z,21.33
2022-12-20T00:10:47.668Z,17.73
2022-12-20T00:21:41.079Z,19.77
2022-12-20T00:23:43.768Z,20.20
2022-12-20T00:26:53.795Z,17.03
2022-12-20T00:28:57.179Z,14.07
2022-12-20T00:30:59.548Z,14.53
2022-12-20T00:33:01.781Z,13.73
2022-12-20T00:35:04.587Z,33.03
2022-12-20T00:37:06.910Z,26.27
2022-12-20T00:39:13.495Z,30.83
2022-12-20T00:41:18.860Z,26.87
2022-12-20T00:43:21.125Z,22.37
2022-12-20T00:45:23.644Z,20.77
2022-12-20T00:47:25.802Z,19.90
2022-12-20T00:49:30.627Z,20.77
2022-12-20T00:51:33.011Z,29.27
2022-12-20T00:53:36.525Z,26.50
2022-12-20T00:55:56.733Z,21.17
2022-12-20T00:58:01.240Z,23.00
2022-12-20T01:00:07.317Z,15.47
2022-12-20T01:02:09.629Z,12.63
2022-12-20T01:04:11.865Z,13.53
2022-12-20T01:06:18.417Z,14.03
2022-12-20T01:08:22.657Z,18.00
2022-12-20T01:10:25.478Z,18.30
2022-12-20T01:12:27.469Z,19.73
2022-12-20T01:14:29.464Z,25.83
2022-12-20T01:16:35.833Z,20.37
2022-12-20T01:18:38.120Z,19.63
2022-12-20T01:20:40.724Z,21.50
2022-12-20T01:22:47.537Z,18.93
2022-12-20T01:24:50.061Z,13.43
2022-12-20T01:26:52.092Z,14.73
2022-12-20T01:28:57.506Z,17.17
2022-12-20T01:31:02.566Z,15.70
2022-12-20T01:33:04.633Z,22.60
2022-12-20T01:35:07.344Z,19.33
2022-12-20T01:37:10.480Z,32.53
2022-12-20T01:39:15.369Z,33.00
2022-12-20T01:41:22.383Z,27.27
2022-12-20T01:43:26.230Z,22.10
2022-12-20T01:45:31.214Z,24.93
2022-12-20T01:47:37.241Z,20.90
2022-12-20T01:49:44.519Z,20.90
2022-12-20T01:52:05.687Z,33.77
2022-12-20T01:54:14.423Z,63.73
2022-12-20T01:56:16.724Z,53.70
2022-12-20T01:58:21.837Z,42.23
2022-12-20T02:00:24.503Z,27.57
2022-12-20T02:02:27.546Z,17.93
2022-12-20T02:04:29.909Z,14.00
2022-12-20T02:06:32.045Z,12.80
2022-12-20T02:08:35.886Z,12.37
2022-12-20T02:10:47.177Z,12.63
2022-12-20T02:12:56.532Z,11.97
2022-12-20T02:15:13.571Z,12.77
2022-12-20T02:17:34.486Z,13.93
2022-12-20T02:19:54.656Z,12.50
2022-12-20T02:22:28.258Z,12.23
2022-12-20T02:24:55.383Z,12.40
2022-12-20T02:26:57.720Z,10.93
2022-12-20T02:29:36.977Z,9.67
2022-12-20T02:31:48.046Z,7.93
2022-12-20T02:33:54.978Z,7.97
2022-12-20T02:36:00.518Z,8.77
2022-12-20T02:38:05.448Z,8.47
2022-12-20T02:40:08.435Z,8.37
2022-12-20T02:42:15.955Z,9.17
2022-12-20T02:44:39.506Z,8.63
2022-12-20T02:46:45.204Z,8.23
2022-12-20T02:48:49.576Z,10.23
2022-12-20T02:50:55.935Z,10.87
2022-12-20T02:52:59.920Z,11.73
2022-12-20T02:55:03.633Z,12.10
2022-12-20T02:57:22.776Z,12.00
2022-12-20T02:59:42.886Z,12.00
2022-12-20T03:01:50.551Z,13.47
2022-12-20T03:03:54.733Z,11.40
2022-12-20T03:05:57.239Z,11.80
2022-12-20T03:07:59.896Z,11.43
2022-12-20T03:10:02.022Z,12.60
2022-12-20T03:12:05.141Z,12.73
2022-12-20T03:14:10.979Z,12.30
2022-12-20T03:16:13.280Z,12.50
2022-12-20T03:18:15.722Z,13.07
2022-12-20T03:20:17.785Z,12.63
2022-12-20T03:22:23.782Z,12.57
2022-12-20T03:24:31.518Z,10.97
2022-12-20T03:26:34.802Z,12.20
2022-12-20T03:28:37.232Z,16.20
2022-12-20T03:30:41.113Z,17.83
2022-12-20T03:32:43.863Z,20.63
2022-12-20T03:34:47.364Z,21.63
2022-12-20T03:36:53.057Z,20.27
2022-12-20T03:38:56.356Z,18.83
2022-12-20T03:41:00.332Z,19.97
2022-12-20T03:43:05.204Z,20.93
2022-12-20T03:45:07.890Z,19.23
2022-12-20T03:47:10.174Z,18.63
2022-12-20T03:49:15.858Z,15.57
2022-12-20T03:51:23.305Z,15.13
2022-12-20T03:53:25.904Z,14.67
2022-12-20T03:55:28.825Z,17.13
2022-12-20T03:57:31.068Z,17.37
2022-12-20T03:59:34.617Z,17.43
2022-12-20T04:01:38.836Z,15.80
2022-12-20T04:03:44.269Z,16.37
2022-12-20T04:05:46.854Z,18.10
2022-12-20T04:07:49.045Z,18.47
2022-12-20T04:09:51.536Z,17.73
2022-12-20T04:11:53.803Z,17.53
2022-12-20T04:13:56.010Z,15.80
2022-12-20T04:16:00.987Z,14.50
2022-12-20T04:18:07.157Z,14.60
2022-12-20T04:20:21.012Z,14.43
2022-12-20T04:22:30.852Z,15.20
2022-12-20T04:24:38.723Z,13.77
2022-12-20T04:26:51.957Z,14.37
2022-12-20T04:28:54.181Z,14.17
2022-12-20T04:30:58.939Z,14.33
2022-12-20T04:33:04.634Z,15.57
2022-12-20T04:35:07.873Z,15.47
2022-12-20T04:37:15.407Z,15.13
2022-12-20T04:39:28.210Z,14.87
2022-12-20T04:41:53.083Z,14.07
2022-12-20T04:43:57.481Z,14.40
2022-12-20T04:46:05.767Z,15.67
2022-12-20T04:48:46.007Z,15.37
2022-12-20T04:50:52.747Z,13.57
2022-12-20T04:53:13.914Z,12.13
2022-12-20T04:55:16.547Z,13.00
2022-12-20T04:57:18.877Z,11.43
2022-12-20T04:59:21.466Z,10.33
2022-12-20T05:01:27.291Z,10.47
2022-12-20T05:03:29.786Z,10.93
2022-12-20T05:05:32.567Z,14.10
2022-12-20T05:07:34.859Z,23.03
2022-12-20T05:09:37.719Z,34.50
2022-12-20T05:11:40.563Z,28.50
2022-12-20T05:13:46.991Z,31.80
2022-12-20T05:15:54.512Z,42.10
2022-12-20T05:18:00.569Z,32.07
2022-12-20T05:20:11.207Z,42.77
2022-12-20T05:22:35.398Z,34.87
2022-12-20T05:25:00.784Z,45.13
2022-12-20T05:27:06.567Z,35.30
2022-12-20T05:29:08.540Z,26.93
2022-12-20T05:31:11.057Z,20.70
2022-12-20T05:33:13.251Z,23.60
2022-12-20T05:35:17.678Z,24.43
2022-12-20T05:37:22.635Z,19.47
2022-12-20T05:39:25.043Z,18.77
2022-12-20T05:41:29.904Z,17.67
2022-12-20T05:43:35.401Z,22.00
2022-12-20T05:45:38.858Z,21.87
2022-12-20T05:47:48.611Z,20.47
2022-12-20T05:49:54.288Z,23.73
2022-12-20T05:51:56.899Z,21.87
2022-12-20T05:54:02.283Z,23.33
2022-12-20T05:56:16.973Z,22.57
2022-12-20T05:58:19.519Z,23.93
2022-12-20T06:00:34.667Z,22.63
2022-12-20T06:02:37.196Z,23.37
2022-12-20T06:04:39.708Z,25.00
2022-12-20T06:06:49.733Z,24.00
2022-12-20T06:08:56.462Z,25.40
2022-12-20T06:11:11.804Z,27.90
2022-12-20T06:13:24.362Z,28.63
2022-12-20T06:15:29.566Z,29.73
2022-12-20T06:17:33.138Z,25.80
2022-12-20T06:19:35.964Z,22.70
2022-12-20T06:21:38.246Z,21.67
2022-12-20T06:23:52.686Z,25.90
2022-12-20T06:25:55.760Z,27.43
2022-12-20T06:28:00.631Z,29.97
2022-12-20T06:30:06.253Z,45.00
2022-12-20T06:32:20.839Z,39.70
2022-12-20T06:34:24.463Z,31.37
2022-12-20T06:36:27.082Z,24.97
2022-12-20T06:38:29.663Z,22.63
2022-12-20T06:40:32.093Z,26.27
2022-12-20T06:42:36.658Z,33.07
2022-12-20T06:44:38.777Z,31.37
2022-12-20T06:46:41.244Z,28.53
2022-12-20T06:48:43.632Z,25.57
2022-12-20T06:50:55.589Z,30.40
2022-12-20T06:52:59.375Z,36.90
2022-12-20T06:55:01.449Z,42.37
2022-12-20T06:57:07.798Z,63.23
2022-12-20T06:59:10.490Z,65.60
2022-12-20T07:01:12.784Z,52.10
2022-12-20T07:03:15.828Z,49.57
2022-12-20T07:05:18.159Z,48.37
2022-12-20T07:07:20.371Z,47.07
2022-12-20T07:09:22.917Z,46.20
2022-12-20T07:11:25.156Z,47.30
2022-12-20T07:13:28.226Z,47.60
2022-12-20T07:15:30.667Z,48.20
2022-12-20T07:17:32.798Z,48.57
2022-12-20T07:19:37.623Z,54.30
2022-12-20T07:21:39.961Z,57.13
2022-12-20T07:23:42.430Z,51.90
2022-12-20T07:25:52.458Z,48.13
2022-12-20T07:27:54.571Z,51.80
2022-12-20T07:29:59.558Z,50.83
2022-12-20T07:32:01.715Z,62.70
2022-12-20T07:34:07.005Z,73.53
2022-12-20T07:36:12.773Z,71.67
2022-12-20T07:38:14.842Z,72.80
2022-12-20T07:40:17.716Z,68.60
2022-12-20T07:42:20.061Z,59.83
2022-12-20T07:44:25.210Z,53.03
2022-12-20T07:46:28.806Z,42.00
2022-12-20T07:48:34.507Z,42.17
2022-12-20T07:50:37.714Z,39.27
2022-12-20T07:52:44.287Z,41.90
2022-12-20T07:54:54.251Z,38.10
2022-12-20T07:57:00.884Z,42.67
2022-12-20T07:59:04.454Z,38.50
2022-12-20T08:01:07.697Z,36.63
2022-12-20T08:03:17.248Z,41.57
2022-12-20T08:05:19.450Z,45.27
2022-12-20T08:07:21.672Z,41.57
2022-12-20T08:09:26.168Z,39.67
2022-12-20T08:11:30.559Z,38.23
2022-12-20T08:13:34.008Z,35.80
2022-12-20T08:15:39.724Z,48.67
2022-12-20T08:17:41.644Z,61.80
2022-12-20T08:19:43.707Z,64.63
2022-12-20T08:21:45.632Z,68.00
2022-12-20T08:23:47.765Z,66.70
2022-12-20T08:25:50.332Z,63.63
2022-12-20T08:27:53.531Z,61.00
2022-12-20T08:29:55.588Z,53.80
2022-12-20T08:31:57.928Z,55.43
2022-12-20T08:33:59.904Z,60.17
2022-12-20T08:36:04.654Z,57.07
2022-12-20T08:38:07.671Z,46.03
2022-12-20T08:40:10.500Z,34.60
2022-12-20T08:42:12.926Z,35.83
2022-12-20T08:44:15.223Z,30.73
2022-12-20T08:46:17.821Z,31.03
2022-12-20T08:48:19.964Z,28.80
2022-12-20T08:50:22.057Z,38.67
2022-12-20T08:52:24.235Z,37.93
2022-12-20T08:54:26.239Z,33.77
2022-12-20T08:56:28.712Z,21.77
2022-12-20T08:58:30.947Z,18.20
2022-12-20T09:00:36.944Z,20.90
2022-12-20T09:02:41.559Z,19.63
2022-12-20T09:04:44.590Z,19.43
2022-12-20T09:06:47.432Z,18.27
2022-12-20T09:08:50.207Z,24.20
2022-12-20T09:10:53.345Z,31.57
2022-12-20T09:12:55.387Z,25.27
2022-12-20T09:14:57.881Z,21.03
2022-12-20T09:16:59.907Z,18.60
2022-12-20T09:19:05.833Z,18.03
2022-12-20T09:21:10.035Z,18.23
2022-12-20T09:23:12.345Z,16.77
2022-12-20T09:25:14.448Z,17.10
2022-12-20T09:27:16.333Z,50.07
2022-12-20T09:29:25.818Z,40.67
2022-12-20T09:31:29.549Z,30.20
2022-12-20T09:33:34.003Z,22.17
2022-12-20T09:35:36.014Z,17.50
2022-12-20T09:37:38.249Z,14.03
2022-12-20T09:39:40.271Z,14.70
2022-12-20T09:41:44.357Z,12.97
2022-12-20T09:43:46.482Z,11.47
2022-12-20T09:45:53.826Z,11.33
2022-12-20T09:47:56.074Z,13.27
2022-12-20T09:49:58.614Z,17.07
2022-12-20T09:52:29.469Z,15.47
2022-12-20T09:54:57.134Z,11.20
2022-12-20T09:57:24.263Z,9.17
2022-12-20T09:59:26.748Z,7.20
2022-12-20T10:01:38.287Z,6.30
2022-12-20T10:03:42.063Z,5.80
2022-12-20T10:05:56.636Z,6.33
2022-12-20T10:08:08.803Z,7.03
2022-12-20T10:10:21.915Z,7.63
2022-12-20T10:12:27.539Z,9.53
2022-12-20T10:14:44.858Z,8.83
2022-12-20T10:16:51.683Z,9.27
2022-12-20T10:18:55.197Z,9.50
2022-12-20T10:21:06.187Z,10.43
2022-12-20T10:23:13.946Z,10.17
2022-12-20T10:25:23.342Z,10.47
2022-12-20T10:27:26.035Z,11.30
2022-12-20T10:29:29.802Z,11.47
2022-12-20T10:31:31.890Z,9.70
2022-12-20T10:33:35.481Z,9.43
2022-12-20T10:35:40.621Z,9.07
2022-12-20T10:38:13.428Z,9.10
2022-12-20T10:40:53.371Z,8.73
2022-12-20T10:42:53.074Z,7.77
2022-12-20T10:44:56.373Z,7.87
2022-12-20T10:47:01.306Z,7.20
2022-12-20T10:49:27.133Z,7.73
2022-12-20T10:51:29.415Z,6.80
2022-12-20T10:53:32.962Z,7.40
2022-12-20T10:55:40.584Z,6.20
2022-12-20T10:57:43.275Z,7.13
2022-12-20T11:00:05.823Z,6.70
2022-12-20T11:02:38.803Z,5.33
2022-12-20T11:04:42.571Z,5.17
2022-12-20T11:06:45.787Z,4.90
2022-12-20T11:08:54.148Z,6.23
2022-12-20T11:11:19.892Z,5.80
2022-12-20T11:13:29.518Z,5.70
2022-12-20T11:15:39.198Z,6.37
2022-12-20T11:17:47.711Z,7.00
2022-12-20T11:20:22.676Z,7.10
2022-12-20T11:22:34.062Z,8.27
2022-12-20T11:25:20.607Z,8.57
2022-12-20T11:27:31.375Z,8.70
2022-12-20T11:29:56.247Z,8.57
2022-12-20T11:32:08.655Z,9.17
2022-12-20T11:34:16.336Z,8.77
2022-12-20T11:36:50.572Z,8.40
2022-12-20T11:39:15.857Z,7.80
2022-12-20T11:41:43.567Z,9.27
2022-12-20T11:44:25.930Z,8.33
2022-12-20T11:46:34.975Z,8.83
2022-12-20T11:48:49.121Z,7.73
2022-12-20T11:51:04.278Z,8.03
2022-12-20T11:53:23.257Z,7.40
2022-12-20T11:55:30.042Z,7.37
2022-12-20T11:58:09.538Z,7.47
2022-12-20T12:00:22.842Z,7.93
2022-12-20T12:02:44.009Z,7.60
2022-12-20T12:05:01.645Z,6.60
2022-12-20T12:07:20.329Z,6.77
2022-12-20T12:09:32.176Z,6.40
2022-12-20T12:12:05.838Z,6.90
2022-12-20T12:14:05.053Z,6.33
2022-12-20T12:16:11.818Z,7.20
2022-12-20T12:18:20.049Z,6.80
2022-12-20T12:20:52.363Z,8.50
2022-12-20T12:23:03.315Z,9.93
2022-12-20T12:25:11.585Z,11.83
2022-12-20T12:27:25.963Z,13.43
2022-12-20T12:29:30.104Z,14.63
2022-12-20T12:31:50.970Z,16.43
2022-12-20T12:34:27.669Z,16.93
2022-12-20T12:37:10.074Z,17.50
2022-12-20T12:39:31.290Z,16.70
2022-12-20T12:41:51.828Z,18.93
2022-12-20T12:43:57.651Z,17.60
2022-12-20T12:46:01.976Z,17.37
2022-12-20T12:48:22.773Z,16.43
2022-12-20T12:50:26.750Z,17.03
2022-12-20T12:52:43.915Z,18.00
2022-12-20T12:54:52.141Z,17.13
2022-12-20T12:57:06.940Z,15.23
2022-12-20T12:59:21.129Z,15.40
2022-12-20T13:01:54.660Z,16.00
2022-12-20T13:03:56.848Z,16.10
2022-12-20T13:05:59.194Z,16.97
2022-12-20T13:08:05.760Z,15.77
2022-12-20T13:10:18.633Z,16.13
2022-12-20T13:12:39.060Z,16.50
2022-12-20T13:14:43.528Z,16.00
2022-12-20T13:17:11.468Z,15.80
2022-12-20T13:19:25.177Z,16.50
2022-12-20T13:21:35.540Z,18.50
2022-12-20T13:23:37.873Z,18.73
2022-12-20T13:25:41.737Z,17.87
2022-12-20T13:27:44.070Z,16.53
2022-12-20T13:30:12.556Z,16.27
2022-12-20T13:32:51.712Z,19.70
2022-12-20T13:34:56.972Z,43.10
2022-12-20T13:36:59.765Z,40.70
2022-12-20T13:39:24.302Z,41.73
2022-12-20T13:41:35.806Z,38.73
2022-12-20T13:43:48.731Z,38.60
2022-12-20T13:46:09.598Z,35.40
2022-12-20T13:48:18.297Z,26.97
2022-12-20T13:50:30.284Z,24.47
2022-12-20T13:52:38.726Z,22.60
2022-12-20T13:54:43.534Z,19.27
2022-12-20T13:56:49.558Z,23.60
2022-12-20T13:58:53.237Z,21.77
2022-12-20T14:01:06.412Z,22.10
2022-12-20T14:03:29.730Z,21.03
2022-12-20T14:05:37.208Z,19.97
2022-12-20T14:07:40.447Z,18.80
2022-12-20T14:09:46.140Z,17.87
2022-12-20T14:11:48.636Z,16.43
2022-12-20T14:14:01.150Z,15.20
2022-12-20T14:16:18.146Z,15.50
2022-12-20T14:18:25.939Z,14.57
2022-12-20T14:20:33.264Z,12.93
2022-12-20T14:22:36.875Z,13.50
2022-12-20T14:24:45.009Z,14.00
2022-12-20T14:26:51.737Z,15.13
2022-12-20T14:28:57.297Z,13.97
2022-12-20T14:31:01.471Z,13.73
2022-12-20T14:33:03.988Z,14.23
2022-12-20T14:38:04.474Z,17.17
2022-12-20T14:40:09.727Z,16.37
2022-12-20T14:42:12.073Z,17.00
2022-12-20T14:44:17.581Z,16.63
2022-12-20T14:46:22.773Z,15.53
2022-12-20T14:48:24.946Z,16.17
2022-12-20T14:50:38.445Z,16.63
2022-12-20T14:52:42.723Z,16.87
2022-12-20T14:55:07.682Z,15.87
2022-12-20T14:57:22.179Z,17.50
2022-12-20T14:59:27.812Z,17.20
2022-12-20T15:01:35.953Z,16.87
2022-12-20T15:03:57.630Z,16.03
2022-12-20T15:06:00.893Z,16.30
2022-12-20T15:08:14.800Z,15.67
2022-12-20T15:10:20.144Z,15.93
2022-12-20T15:12:22.632Z,16.97
2022-12-20T15:14:37.315Z,17.13
2022-12-20T15:16:47.559Z,18.60
2022-12-20T15:18:59.279Z,19.77
2022-12-20T15:21:11.171Z,23.33
2022-12-20T15:23:19.418Z,24.03
2022-12-20T15:25:21.691Z,23.73
2022-12-20T15:27:24.664Z,23.93
2022-12-20T15:29:29.771Z,26.23
2022-12-20T15:31:35.374Z,28.53
2022-12-20T15:33:40.182Z,43.13
2022-12-20T15:35:48.553Z,51.90
2022-12-20T15:37:51.239Z,53.93
2022-12-20T15:39:53.308Z,46.33
2022-12-20T15:41:55.917Z,45.30
2022-12-20T15:44:06.183Z,35.63
2022-12-20T15:46:08.575Z,32.03
2022-12-20T15:48:33.787Z,33.10
2022-12-20T15:50:35.979Z,39.73
2022-12-20T15:52:38.260Z,54.10
2022-12-20T15:54:43.171Z,55.40
2022-12-20T15:56:45.348Z,53.63
2022-12-20T15:58:48.624Z,50.53
2022-12-20T16:00:54.564Z,49.07
2022-12-20T16:02:59.573Z,44.23
2022-12-20T16:05:02.186Z,42.53
2022-12-20T16:07:07.515Z,46.27
2022-12-20T16:09:14.628Z,45.33
2022-12-20T16:11:21.592Z,48.87
2022-12-20T16:13:25.576Z,47.23
2022-12-20T16:15:27.684Z,45.67
2022-12-20T16:17:29.810Z,42.10
2022-12-20T16:19:31.884Z,39.93
2022-12-20T16:21:49.787Z,34.57
2022-12-20T16:23:53.034Z,32.30
2022-12-20T16:25:56.157Z,39.37
2022-12-20T16:27:58.289Z,41.93
2022-12-20T16:30:03.748Z,38.73
2022-12-20T16:32:23.598Z,36.20
2022-12-20T16:34:25.916Z,38.20
2022-12-20T16:36:27.983Z,36.87
2022-12-20T16:38:30.312Z,38.60
2022-12-20T16:40:33.583Z,43.97
2022-12-20T16:42:35.552Z,42.37
2022-12-20T16:44:39.752Z,42.07
2022-12-20T16:46:42.585Z,44.63
2022-12-20T16:48:45.464Z,52.63
2022-12-20T16:50:47.578Z,49.63
2022-12-20T16:52:50.938Z,48.80
2022-12-20T16:54:53.081Z,47.00
2022-12-20T16:56:56.968Z,43.43
2022-12-20T16:59:18.700Z,43.67
2022-12-20T17:01:25.264Z,42.00
2022-12-20T17:03:27.510Z,41.03
2022-12-20T17:05:33.527Z,38.67
2022-12-20T17:07:41.255Z,37.50
2022-12-20T17:09:43.808Z,44.10
2022-12-20T17:11:46.999Z,53.93
2022-12-20T17:13:52.192Z,55.87
2022-12-20T17:15:54.310Z,44.97
2022-12-20T17:17:56.465Z,41.83
2022-12-20T17:19:59.073Z,58.10
2022-12-20T17:24:22.943Z,113.97
2022-12-20T17:26:27.420Z,96.93
2022-12-20T17:28:29.735Z,70.07
2022-12-20T17:30:32.254Z,71.03
2022-12-20T17:32:34.525Z,41.80
2022-12-20T17:34:36.802Z,41.17
2022-12-20T17:36:41.834Z,30.47
2022-12-20T17:38:44.431Z,25.77
2022-12-20T17:40:46.699Z,33.17
2022-12-20T17:42:49.353Z,41.83
2022-12-20T17:44:51.695Z,38.53
2022-12-20T17:46:58.777Z,30.93
2022-12-20T17:49:01.176Z,30.20
2022-12-20T17:51:04.122Z,35.70
2022-12-20T17:53:06.382Z,37.97
2022-12-20T17:55:16.166Z,42.90
2022-12-20T17:57:18.103Z,39.47
2022-12-20T17:59:20.818Z,39.20
2022-12-20T18:01:25.397Z,40.87
2022-12-20T18:04:02.120Z,45.37
2022-12-20T18:05:53.021Z,42.33
2022-12-20T18:07:56.076Z,44.73
2022-12-20T18:09:58.306Z,42.17
2022-12-20T18:12:03.589Z,43.10
2022-12-20T18:14:05.675Z,42.50
2022-12-20T18:16:08.527Z,40.47
2022-12-20T18:18:10.586Z,41.27
2022-12-20T18:20:13.467Z,43.73
2022-12-20T18:22:15.647Z,42.30
2022-12-20T18:24:18.251Z,40.30
2022-12-20T18:26:23.534Z,37.57
2022-12-20T18:28:25.649Z,38.27
2022-12-20T18:30:27.770Z,34.73
2022-12-20T18:32:32.238Z,38.00
2022-12-20T18:34:34.434Z,37.20
2022-12-20T18:36:39.416Z,39.13
2022-12-20T18:38:43.229Z,37.30
2022-12-20T18:40:45.980Z,38.53
2022-12-20T18:42:48.092Z,41.40
2022-12-20T18:44:50.300Z,45.30
2022-12-20T18:46:52.417Z,53.30
2022-12-20T18:48:56.013Z,55.00
2022-12-20T18:51:04.143Z,55.83
2022-12-20T18:53:06.224Z,60.07
2022-12-20T18:55:08.743Z,61.30
2022-12-20T18:57:10.948Z,64.10
2022-12-20T18:59:13.429Z,61.40
2022-12-20T19:01:18.983Z,61.30
2022-12-20T19:03:21.291Z,62.37
2022-12-20T19:05:24.837Z,63.20
2022-12-20T19:07:27.097Z,60.90
2022-12-20T19:09:29.067Z,60.60
2022-12-20T19:11:31.582Z,59.90
2022-12-20T19:13:33.628Z,58.73
2022-12-20T19:15:35.727Z,51.50
2022-12-20T19:17:38.151Z,53.93
2022-12-20T19:19:40.525Z,57.10
2022-12-20T19:21:42.834Z,55.63
2022-12-20T19:23:48.722Z,59.60
2022-12-20T19:25:52.541Z,60.77
2022-12-20T19:27:55.002Z,59.77
2022-12-20T19:29:57.001Z,61.33
2022-12-20T19:31:59.187Z,59.47
2022-12-20T19:34:04.400Z,64.60
2022-12-20T19:36:14.506Z,64.00
2022-12-20T19:38:16.923Z,76.33
2022-12-20T19:40:19.285Z,72.63
2022-12-20T19:42:24.510Z,66.13
2022-12-20T19:44:29.940Z,60.63
2022-12-20T19:46:32.347Z,80.33
2022-12-20T19:48:35.090Z,75.17
2022-12-20T19:50:37.211Z,74.50
2022-12-20T19:52:39.311Z,72.37
2022-12-20T19:54:43.389Z,73.00
2022-12-20T19:56:45.817Z,71.60
2022-12-20T19:58:48.190Z,70.73
2022-12-20T20:00:50.910Z,69.53
2022-12-20T20:02:55.895Z,65.03
2022-12-20T20:04:58.737Z,55.87
2022-12-20T20:07:01.074Z,52.73
2022-12-20T20:09:03.811Z,50.10
2022-12-20T20:11:09.816Z,55.47
2022-12-20T20:13:12.760Z,53.10
2022-12-20T20:15:17.394Z,55.90
2022-12-20T20:17:19.591Z,60.07
2022-12-20T20:19:22.250Z,63.90
2022-12-20T20:21:25.134Z,49.23
2022-12-20T20:23:27.409Z,48.00
2022-12-20T20:25:29.642Z,56.70
2022-12-20T20:27:31.659Z,56.83
2022-12-20T20:29:33.829Z,52.80
2022-12-20T20:31:37.008Z,49.53
2022-12-20T20:33:39.408Z,45.87
2022-12-20T20:35:42.397Z,41.13
2022-12-20T20:37:45.345Z,35.03
2022-12-20T20:39:48.014Z,30.33
2022-12-20T20:41:50.207Z,29.17
2022-12-20T20:43:52.827Z,32.93
2022-12-20T20:45:55.158Z,35.13
2022-12-20T20:48:01.156Z,34.40
2022-12-20T20:50:07.149Z,31.57
2022-12-20T20:52:09.287Z,30.73
2022-12-20T20:54:11.546Z,33.73
2022-12-20T20:56:13.694Z,35.87
2022-12-20T20:58:16.667Z,34.63
2022-12-20T21:00:19.465Z,32.37
2022-12-20T21:02:23.952Z,33.97
2022-12-20T21:04:26.117Z,44.30
2022-12-20T21:06:39.220Z,47.03
2022-12-20T21:08:43.244Z,43.40
2022-12-20T21:10:45.407Z,38.57
2022-12-20T21:12:48.321Z,38.10
2022-12-20T21:17:12.995Z,44.60
2022-12-20T21:19:15.012Z,36.53
2022-12-20T21:21:17.382Z,34.30
2022-12-20T21:23:22.754Z,43.53
2022-12-20T21:25:27.683Z,30.93
2022-12-20T21:27:29.811Z,26.90
2022-12-20T21:29:32.118Z,26.03
2022-12-20T21:31:35.429Z,25.77
2022-12-20T21:33:38.573Z,24.70
2022-12-20T21:35:40.990Z,24.97
2022-12-20T21:37:43.383Z,37.97
2022-12-20T21:39:45.678Z,33.30
2022-12-20T21:41:48.211Z,31.43
2022-12-20T21:43:51.603Z,29.20
2022-12-20T21:45:54.105Z,38.87
2022-12-20T21:48:02.748Z,32.93
2022-12-20T21:50:06.007Z,30.57
2022-12-20T21:52:08.350Z,33.03
2022-12-20T21:54:10.846Z,65.17
2022-12-20T21:56:18.196Z,78.03
2022-12-20T21:58:20.842Z,57.63
2022-12-20T22:00:23.419Z,57.83
2022-12-20T22:02:25.714Z,48.43
2022-12-20T22:04:28.294Z,44.87
2022-12-20T22:06:31.681Z,40.70
2022-12-20T22:08:35.028Z,36.20
2022-12-20T22:10:37.109Z,36.23
2022-12-20T22:12:39.450Z,30.57
2022-12-20T22:14:41.626Z,28.33
2022-12-20T22:16:44.399Z,41.23
2022-12-20T22:18:50.222Z,54.57
2022-12-20T22:20:52.736Z,40.53
2022-12-20T22:22:57.661Z,34.93
2022-12-20T22:25:02.408Z,30.20
2022-12-20T22:27:11.021Z,28.33
2022-12-20T22:29:16.349Z,28.87
2022-12-20T22:31:19.719Z,29.03
2022-12-20T22:33:23.077Z,26.70
2022-12-20T22:35:25.149Z,25.90
2022-12-20T22:37:28.538Z,36.03
2022-12-20T22:39:30.546Z,38.37
2022-12-20T22:41:37.095Z,34.27
2022-12-20T22:43:42.241Z,35.43
2022-12-20T22:45:44.439Z,39.30
2022-12-20T22:47:46.901Z,43.60
2022-12-20T22:49:49.228Z,39.90
2022-12-20T22:52:02.741Z,35.23
2022-12-20T22:54:09.473Z,33.93
2022-12-20T22:56:12.508Z,32.03
2022-12-20T22:58:15.021Z,31.57
2022-12-20T23:00:17.416Z,29.80
2022-12-20T23:02:19.833Z,40.73
2022-12-20T23:04:22.256Z,53.67
2022-12-20T23:06:24.521Z,60.10
2022-12-20T23:08:29.741Z,62.60
2022-12-20T23:10:51.518Z,62.37
2022-12-20T23:13:12.068Z,55.77
2022-12-20T23:15:32.553Z,51.90
2022-12-20T23:17:37.044Z,50.03
2022-12-20T23:19:57.513Z,50.23
2022-12-20T23:22:18.364Z,48.93
2022-12-20T23:24:22.947Z,48.80
2022-12-20T23:26:26.847Z,50.07
2022-12-20T23:28:29.000Z,49.00
2022-12-20T23:30:31.049Z,45.90
2022-12-20T23:32:35.917Z,46.27
2022-12-20T23:34:38.004Z,46.73
2022-12-20T23:36:41.090Z,46.53
2022-12-20T23:38:46.060Z,45.37
2022-12-20T23:40:48.359Z,48.67
2022-12-20T23:42:53.751Z,47.27
2022-12-20T23:44:58.885Z,51.33
2022-12-20T23:47:01.135Z,44.77
2022-12-20T23:49:03.559Z,42.27
2022-12-20T23:51:06.464Z,42.80
2022-12-20T23:53:08.874Z,43.80
2022-12-20T23:55:11.395Z,42.60
2022-12-20T23:57:14.185Z,42.10
2022-12-20T23:59:16.355Z,41.30
